sensor_id;sensor_type;location;lat;lon;timestamp;P1;durP1;ratioP1;P2;durP2;ratioP2
37151;SDS011;23046;50.112;8.952;2024-01-30T00:00:09;6.27;;;4.17;;
37151;SDS011;23046;50.112;8.952;2024-01-30T00:00:22;5.88;;;3.97;;
37151;SDS011;23046;50.112;8.952;2024-01-30T00:00:32;6.50;;;3.90;;
37151;SDS011;23046;50.112;8.952;2024-01-30T00:00:42;5.40;;;4.00;;
37151;SDS011;23046;50.112;8.952;2024-01-30T00:00:53;5.90;;;4.17;;
37151;SDS011;23046;50.112;8.952;2024-01-30T00:01:03;5.28;;;3.95;;
37151;SDS011;23046;50.112;8.952;2024-01-30T00:01:13;5.17;;;3.97;;
37151;SDS011;23046;50.112;8.952;2024-01-30T00:01:23;4.77;;;3.90;;
37151;SDS011;23046;50.112;8.952;2024-01-30T00:01:34;4.67;;;4.00;;
37151;SDS011;23046;50.112;8.952;2024-01-30T00:01:44;5.23;;;3.77;;
37151;SDS011;23046;50.112;8.952;2024-01-30T00:01:54;5.40;;;3.78;;
37151;SDS011;23046;50.112;8.952;2024-01-30T00:02:04;5.63;;;3.83;;
37151;SDS011;23046;50.112;8.952;2024-01-30T00:02:14;5.40;;;3.90;;
37151;SDS011;23046;50.112;8.952;2024-01-30T00:02:25;5.63;;;4.00;;
37151;SDS011;23046;50.112;8.952;2024-01-30T00:02:35;5.55;;;3.85;;
37151;SDS011;23046;50.112;8.952;2024-01-30T00:02:46;5.43;;;3.73;;
37151;SDS011;23046;50.112;8.952;2024-01-30T00:02:56;5.03;;;3.60;;
37151;SDS011;23046;50.112;8.952;2024-01-30T00:03:06;4.37;;;3.33;;
37151;SDS011;23046;50.112;8.952;2024-01-30T00:03:17;4.73;;;3.47;;
37151;SDS011;23046;50.112;8.952;2024-01-30T00:03:28;4.63;;;3.42;;
37151;SDS011;23046;50.112;8.952;2024-01-30T00:03:39;5.28;;;3.80;;
37151;SDS011;23046;50.112;8.952;2024-01-30T00:03:49;5.13;;;3.80;;
37151;SDS011;23046;50.112;8.952;2024-01-30T00:04:01;6.20;;;3.97;;
37151;SDS011;23046;50.112;8.952;2024-01-30T00:04:11;7.25;;;3.95;;
37151;SDS011;23046;50.112;8.952;2024-01-30T00:04:22;6.93;;;3.80;;
37151;SDS011;23046;50.112;8.952;2024-01-30T00:04:32;6.77;;;4.03;;
37151;SDS011;23046;50.112;8.952;2024-01-30T00:04:42;5.85;;;3.95;;
37151;SDS011;23046;50.112;8.952;2024-01-30T00:04:52;6.27;;;4.00;;
37151;SDS011;23046;50.112;8.952;2024-01-30T00:05:03;5.67;;;3.70;;
37151;SDS011;23046;50.112;8.952;2024-01-30T00:05:13;5.63;;;3.63;;
37151;SDS011;23046;50.112;8.952;2024-01-30T00:05:24;5.40;;;3.70;;
37151;SDS011;23046;50.112;8.952;2024-01-30T00:05:34;5.00;;;3.73;;
37151;SDS011;23046;50.112;8.952;2024-01-30T00:05:44;4.93;;;3.73;;
37151;SDS011;23046;50.112;8.952;2024-01-30T00:05:54;4.90;;;3.70;;
37151;SDS011;23046;50.112;8.952;2024-01-30T00:06:04;5.53;;;3.70;;
37151;SDS011;23046;50.112;8.952;2024-01-30T00:06:17;5.17;;;3.50;;
37151;SDS011;23046;50.112;8.952;2024-01-30T00:06:28;5.25;;;3.40;;
37151;SDS011;23046;50.112;8.952;2024-01-30T00:06:38;4.97;;;3.40;;
37151;SDS011;23046;50.112;8.952;2024-01-30T00:06:48;5.27;;;3.60;;
37151;SDS011;23046;50.112;8.952;2024-01-30T00:06:59;5.22;;;3.72;;
37151;SDS011;23046;50.112;8.952;2024-01-30T00:07:09;4.67;;;3.70;;
37151;SDS011;23046;50.112;8.952;2024-01-30T00:07:19;4.93;;;3.70;;
37151;SDS011;23046;50.112;8.952;2024-01-30T00:07:29;4.57;;;3.60;;
37151;SDS011;23046;50.112;8.952;2024-01-30T00:07:39;4.73;;;3.70;;
37151;SDS011;23046;50.112;8.952;2024-01-30T00:07:50;4.70;;;3.53;;
37151;SDS011;23046;50.112;8.952;2024-01-30T00:08:00;5.33;;;3.80;;
37151;SDS011;23046;50.112;8.952;2024-01-30T00:08:10;6.30;;;3.83;;
37151;SDS011;23046;50.112;8.952;2024-01-30T00:08:21;6.43;;;3.90;;
37151;SDS011;23046;50.112;8.952;2024-01-30T00:08:31;6.53;;;3.80;;
37151;SDS011;23046;50.112;8.952;2024-01-30T00:08:41;8.37;;;3.90;;
37151;SDS011;23046;50.112;8.952;2024-01-30T00:08:51;8.13;;;4.00;;
37151;SDS011;23046;50.112;8.952;2024-01-30T00:09:03;7.32;;;3.95;;
37151;SDS011;23046;50.112;8.952;2024-01-30T00:09:13;5.33;;;3.87;;
37151;SDS011;23046;50.112;8.952;2024-01-30T00:09:23;5.40;;;3.83;;
37151;SDS011;23046;50.112;8.952;2024-01-30T00:09:34;5.80;;;3.83;;
37151;SDS011;23046;50.112;8.952;2024-01-30T00:09:46;5.83;;;3.90;;
37151;SDS011;23046;50.112;8.952;2024-01-30T00:09:56;6.30;;;4.22;;
37151;SDS011;23046;50.112;8.952;2024-01-30T00:10:06;5.63;;;4.07;;
37151;SDS011;23046;50.112;8.952;2024-01-30T00:10:16;5.05;;;3.88;;
37151;SDS011;23046;50.112;8.952;2024-01-30T00:10:27;5.17;;;3.50;;
37151;SDS011;23046;50.112;8.952;2024-01-30T00:10:37;6.37;;;3.67;;
37151;SDS011;23046;50.112;8.952;2024-01-30T00:10:47;6.97;;;3.70;;
37151;SDS011;23046;50.112;8.952;2024-01-30T00:10:57;7.18;;;3.80;;
37151;SDS011;23046;50.112;8.952;2024-01-30T00:11:08;6.07;;;3.80;;
37151;SDS011;23046;50.112;8.952;2024-01-30T00:11:18;6.33;;;3.80;;
37151;SDS011;23046;50.112;8.952;2024-01-30T00:11:28;6.33;;;3.93;;
37151;SDS011;23046;50.112;8.952;2024-01-30T00:11:39;5.93;;;3.92;;
37151;SDS011;23046;50.112;8.952;2024-01-30T00:11:49;5.67;;;3.87;;
37151;SDS011;23046;50.112;8.952;2024-01-30T00:11:59;5.53;;;3.73;;
37151;SDS011;23046;50.112;8.952;2024-01-30T00:12:09;5.87;;;3.80;;
37151;SDS011;23046;50.112;8.952;2024-01-30T00:12:19;5.67;;;3.87;;
37151;SDS011;23046;50.112;8.952;2024-01-30T00:12:30;5.25;;;3.75;;
37151;SDS011;23046;50.112;8.952;2024-01-30T00:12:41;5.13;;;3.58;;
37151;SDS011;23046;50.112;8.952;2024-01-30T00:12:51;5.10;;;3.57;;
37151;SDS011;23046;50.112;8.952;2024-01-30T00:13:02;5.22;;;3.70;;
37151;SDS011;23046;50.112;8.952;2024-01-30T00:13:13;6.25;;;3.85;;
37151;SDS011;23046;50.112;8.952;2024-01-30T00:13:24;6.55;;;3.97;;
37151;SDS011;23046;50.112;8.952;2024-01-30T00:13:34;7.33;;;3.83;;
37151;SDS011;23046;50.112;8.952;2024-01-30T00:13:44;6.10;;;3.80;;
37151;SDS011;23046;50.112;8.952;2024-01-30T00:13:54;6.70;;;3.73;;
37151;SDS011;23046;50.112;8.952;2024-01-30T00:14:06;6.05;;;3.80;;
37151;SDS011;23046;50.112;8.952;2024-01-30T00:14:16;7.20;;;3.77;;
37151;SDS011;23046;50.112;8.952;2024-01-30T00:14:26;6.60;;;3.72;;
37151;SDS011;23046;50.112;8.952;2024-01-30T00:14:37;6.20;;;3.50;;
37151;SDS011;23046;50.112;8.952;2024-01-30T00:14:47;5.13;;;3.57;;
37151;SDS011;23046;50.112;8.952;2024-01-30T00:14:57;5.53;;;3.70;;
37151;SDS011;23046;50.112;8.952;2024-01-30T00:15:08;5.15;;;3.75;;
37151;SDS011;23046;50.112;8.952;2024-01-30T00:15:19;5.30;;;3.78;;
37151;SDS011;23046;50.112;8.952;2024-01-30T00:15:29;4.80;;;3.70;;
37151;SDS011;23046;50.112;8.952;2024-01-30T00:15:40;5.63;;;3.85;;
37151;SDS011;23046;50.112;8.952;2024-01-30T00:15:50;5.50;;;3.70;;
37151;SDS011;23046;50.112;8.952;2024-01-30T00:16:00;5.90;;;3.77;;
37151;SDS011;23046;50.112;8.952;2024-01-30T00:16:20;5.10;;;3.80;;
37151;SDS011;23046;50.112;8.952;2024-01-30T00:16:30;5.38;;;4.10;;
37151;SDS011;23046;50.112;8.952;2024-01-30T00:16:41;5.27;;;3.90;;
37151;SDS011;23046;50.112;8.952;2024-01-30T00:16:51;5.03;;;3.80;;
37151;SDS011;23046;50.112;8.952;2024-01-30T00:17:01;5.70;;;3.90;;
37151;SDS011;23046;50.112;8.952;2024-01-30T00:17:12;5.87;;;3.80;;
37151;SDS011;23046;50.112;8.952;2024-01-30T00:17:22;6.05;;;3.85;;
37151;SDS011;23046;50.112;8.952;2024-01-30T00:17:32;5.77;;;3.87;;
37151;SDS011;23046;50.112;8.952;2024-01-30T00:17:42;5.13;;;3.80;;
37151;SDS011;23046;50.112;8.952;2024-01-30T00:17:52;5.20;;;3.90;;
37151;SDS011;23046;50.112;8.952;2024-01-30T00:18:03;5.28;;;3.63;;
37151;SDS011;23046;50.112;8.952;2024-01-30T00:18:13;6.23;;;3.70;;
37151;SDS011;23046;50.112;8.952;2024-01-30T00:18:23;6.33;;;3.60;;
37151;SDS011;23046;50.112;8.952;2024-01-30T00:18:33;6.70;;;4.00;;
37151;SDS011;23046;50.112;8.952;2024-01-30T00:18:44;6.50;;;3.97;;
37151;SDS011;23046;50.112;8.952;2024-01-30T00:18:54;7.10;;;4.00;;
37151;SDS011;23046;50.112;8.952;2024-01-30T00:19:04;6.70;;;3.97;;
37151;SDS011;23046;50.112;8.952;2024-01-30T00:19:15;5.63;;;3.87;;
37151;SDS011;23046;50.112;8.952;2024-01-30T00:19:25;5.50;;;3.83;;
37151;SDS011;23046;50.112;8.952;2024-01-30T00:19:35;5.13;;;3.70;;
37151;SDS011;23046;50.112;8.952;2024-01-30T00:19:45;5.60;;;3.73;;
37151;SDS011;23046;50.112;8.952;2024-01-30T00:19:55;4.93;;;3.77;;
37151;SDS011;23046;50.112;8.952;2024-01-30T00:20:06;5.10;;;3.73;;
37151;SDS011;23046;50.112;8.952;2024-01-30T00:20:17;5.57;;;3.85;;
37151;SDS011;23046;50.112;8.952;2024-01-30T00:20:27;4.88;;;3.90;;
37151;SDS011;23046;50.112;8.952;2024-01-30T00:20:37;5.53;;;3.87;;
37151;SDS011;23046;50.112;8.952;2024-01-30T00:20:48;4.73;;;3.63;;
37151;SDS011;23046;50.112;8.952;2024-01-30T00:20:58;5.23;;;3.73;;
37151;SDS011;23046;50.112;8.952;2024-01-30T00:21:08;5.23;;;3.73;;
37151;SDS011;23046;50.112;8.952;2024-01-30T00:21:18;6.33;;;3.90;;
37151;SDS011;23046;50.112;8.952;2024-01-30T00:21:29;5.60;;;3.57;;
37151;SDS011;23046;50.112;8.952;2024-01-30T00:21:39;5.10;;;3.63;;
37151;SDS011;23046;50.112;8.952;2024-01-30T00:21:49;4.87;;;3.63;;
37151;SDS011;23046;50.112;8.952;2024-01-30T00:21:59;5.73;;;3.70;;
37151;SDS011;23046;50.112;8.952;2024-01-30T00:22:10;5.30;;;3.67;;
37151;SDS011;23046;50.112;8.952;2024-01-30T00:22:20;4.47;;;3.50;;
37151;SDS011;23046;50.112;8.952;2024-01-30T00:22:30;4.53;;;3.65;;
37151;SDS011;23046;50.112;8.952;2024-01-30T00:22:40;5.03;;;3.70;;
37151;SDS011;23046;50.112;8.952;2024-01-30T00:22:51;5.10;;;3.83;;
37151;SDS011;23046;50.112;8.952;2024-01-30T00:23:01;6.10;;;3.83;;
37151;SDS011;23046;50.112;8.952;2024-01-30T00:23:11;5.88;;;3.90;;
37151;SDS011;23046;50.112;8.952;2024-01-30T00:23:22;6.00;;;3.90;;
37151;SDS011;23046;50.112;8.952;2024-01-30T00:23:32;4.70;;;3.87;;
37151;SDS011;23046;50.112;8.952;2024-01-30T00:23:42;5.25;;;3.85;;
37151;SDS011;23046;50.112;8.952;2024-01-30T00:23:52;5.97;;;3.90;;
37151;SDS011;23046;50.112;8.952;2024-01-30T00:24:03;6.77;;;4.10;;
37151;SDS011;23046;50.112;8.952;2024-01-30T00:24:13;7.17;;;4.17;;
37151;SDS011;23046;50.112;8.952;2024-01-30T00:24:23;7.68;;;4.15;;
37151;SDS011;23046;50.112;8.952;2024-01-30T00:24:33;6.47;;;3.87;;
37151;SDS011;23046;50.112;8.952;2024-01-30T00:24:44;4.97;;;3.53;;
37151;SDS011;23046;50.112;8.952;2024-01-30T00:24:54;4.23;;;3.40;;
37151;SDS011;23046;50.112;8.952;2024-01-30T00:25:04;4.67;;;3.20;;
37151;SDS011;23046;50.112;8.952;2024-01-30T00:25:15;5.85;;;3.47;;
37151;SDS011;23046;50.112;8.952;2024-01-30T00:25:25;5.70;;;3.53;;
37151;SDS011;23046;50.112;8.952;2024-01-30T00:25:35;5.35;;;3.72;;
37151;SDS011;23046;50.112;8.952;2024-01-30T00:25:45;4.40;;;3.60;;
37151;SDS011;23046;50.112;8.952;2024-01-30T00:25:56;4.97;;;3.70;;
37151;SDS011;23046;50.112;8.952;2024-01-30T00:26:06;6.13;;;3.87;;
37151;SDS011;23046;50.112;8.952;2024-01-30T00:26:16;7.80;;;4.20;;
37151;SDS011;23046;50.112;8.952;2024-01-30T00:26:26;7.70;;;4.10;;
37151;SDS011;23046;50.112;8.952;2024-01-30T00:26:36;6.53;;;3.80;;
37151;SDS011;23046;50.112;8.952;2024-01-30T00:26:47;5.90;;;3.73;;
37151;SDS011;23046;50.112;8.952;2024-01-30T00:26:57;5.77;;;3.70;;
37151;SDS011;23046;50.112;8.952;2024-01-30T00:27:07;6.73;;;4.00;;
37151;SDS011;23046;50.112;8.952;2024-01-30T00:27:18;6.05;;;4.00;;
37151;SDS011;23046;50.112;8.952;2024-01-30T00:27:28;5.50;;;4.03;;
37151;SDS011;23046;50.112;8.952;2024-01-30T00:27:38;4.33;;;3.83;;
37151;SDS011;23046;50.112;8.952;2024-01-30T00:27:48;4.18;;;3.75;;
37151;SDS011;23046;50.112;8.952;2024-01-30T00:27:58;5.43;;;3.90;;
37151;SDS011;23046;50.112;8.952;2024-01-30T00:28:09;6.57;;;4.00;;
37151;SDS011;23046;50.112;8.952;2024-01-30T00:28:19;7.17;;;4.03;;
37151;SDS011;23046;50.112;8.952;2024-01-30T00:28:29;5.97;;;3.70;;
37151;SDS011;23046;50.112;8.952;2024-01-30T00:28:39;6.15;;;3.60;;
37151;SDS011;23046;50.112;8.952;2024-01-30T00:28:49;6.07;;;3.60;;
37151;SDS011;23046;50.112;8.952;2024-01-30T00:29:00;5.77;;;3.70;;
37151;SDS011;23046;50.112;8.952;2024-01-30T00:29:10;4.93;;;3.67;;
37151;SDS011;23046;50.112;8.952;2024-01-30T00:29:20;5.45;;;3.60;;
37151;SDS011;23046;50.112;8.952;2024-01-30T00:29:32;6.50;;;3.72;;
37151;SDS011;23046;50.112;8.952;2024-01-30T00:29:43;7.20;;;4.00;;
37151;SDS011;23046;50.112;8.952;2024-01-30T00:29:53;6.77;;;4.10;;
37151;SDS011;23046;50.112;8.952;2024-01-30T00:30:04;7.07;;;4.10;;
37151;SDS011;23046;50.112;8.952;2024-01-30T00:30:15;7.55;;;4.35;;
37151;SDS011;23046;50.112;8.952;2024-01-30T00:30:25;7.60;;;4.33;;
37151;SDS011;23046;50.112;8.952;2024-01-30T00:30:35;8.10;;;4.43;;
37151;SDS011;23046;50.112;8.952;2024-01-30T00:30:45;7.35;;;4.20;;
37151;SDS011;23046;50.112;8.952;2024-01-30T00:30:55;6.57;;;4.03;;
37151;SDS011;23046;50.112;8.952;2024-01-30T00:31:06;4.87;;;3.67;;
37151;SDS011;23046;50.112;8.952;2024-01-30T00:31:16;5.07;;;3.60;;
37151;SDS011;23046;50.112;8.952;2024-01-30T00:31:26;5.33;;;3.60;;
37151;SDS011;23046;50.112;8.952;2024-01-30T00:31:36;6.22;;;4.05;;
37151;SDS011;23046;50.112;8.952;2024-01-30T00:31:47;6.57;;;4.17;;
37151;SDS011;23046;50.112;8.952;2024-01-30T00:31:57;6.60;;;4.30;;
37151;SDS011;23046;50.112;8.952;2024-01-30T00:32:07;6.67;;;4.20;;
37151;SDS011;23046;50.112;8.952;2024-01-30T00:32:17;5.70;;;4.10;;
37151;SDS011;23046;50.112;8.952;2024-01-30T00:32:29;4.88;;;3.80;;
37151;SDS011;23046;50.112;8.952;2024-01-30T00:32:39;4.10;;;3.50;;
37151;SDS011;23046;50.112;8.952;2024-01-30T00:32:49;3.93;;;3.50;;
37151;SDS011;23046;50.112;8.952;2024-01-30T00:33:00;4.10;;;3.50;;
37151;SDS011;23046;50.112;8.952;2024-01-30T00:33:10;4.60;;;3.60;;
37151;SDS011;23046;50.112;8.952;2024-01-30T00:33:20;5.70;;;3.83;;
37151;SDS011;23046;50.112;8.952;2024-01-30T00:33:30;5.87;;;3.93;;
37151;SDS011;23046;50.112;8.952;2024-01-30T00:33:40;6.07;;;4.05;;
37151;SDS011;23046;50.112;8.952;2024-01-30T00:33:51;5.53;;;3.90;;
37151;SDS011;23046;50.112;8.952;2024-01-30T00:34:01;6.37;;;3.83;;
37151;SDS011;23046;50.112;8.952;2024-01-30T00:34:11;6.60;;;3.80;;
37151;SDS011;23046;50.112;8.952;2024-01-30T00:34:22;6.43;;;3.80;;
37151;SDS011;23046;50.112;8.952;2024-01-30T00:34:32;7.03;;;4.10;;
37151;SDS011;23046;50.112;8.952;2024-01-30T00:34:42;6.57;;;4.10;;
37151;SDS011;23046;50.112;8.952;2024-01-30T00:34:52;7.23;;;4.40;;
37151;SDS011;23046;50.112;8.952;2024-01-30T00:35:03;6.13;;;4.20;;
37151;SDS011;23046;50.112;8.952;2024-01-30T00:35:13;6.60;;;4.20;;
37151;SDS011;23046;50.112;8.952;2024-01-30T00:35:23;6.73;;;4.07;;
37151;SDS011;23046;50.112;8.952;2024-01-30T00:35:33;6.80;;;4.30;;
37151;SDS011;23046;50.112;8.952;2024-01-30T00:35:43;6.50;;;4.17;;
37151;SDS011;23046;50.112;8.952;2024-01-30T00:35:54;5.18;;;4.10;;
37151;SDS011;23046;50.112;8.952;2024-01-30T00:36:05;5.37;;;3.77;;
37151;SDS011;23046;50.112;8.952;2024-01-30T00:36:15;5.35;;;3.80;;
37151;SDS011;23046;50.112;8.952;2024-01-30T00:36:25;5.50;;;3.67;;
37151;SDS011;23046;50.112;8.952;2024-01-30T00:36:35;4.80;;;3.80;;
37151;SDS011;23046;50.112;8.952;2024-01-30T00:36:45;6.53;;;4.00;;
37151;SDS011;23046;50.112;8.952;2024-01-30T00:36:56;6.68;;;4.18;;
37151;SDS011;23046;50.112;8.952;2024-01-30T00:37:06;7.20;;;4.13;;
37151;SDS011;23046;50.112;8.952;2024-01-30T00:37:17;6.03;;;4.00;;
37151;SDS011;23046;50.112;8.952;2024-01-30T00:37:27;6.03;;;3.97;;
37151;SDS011;23046;50.112;8.952;2024-01-30T00:37:37;5.60;;;4.00;;
37151;SDS011;23046;50.112;8.952;2024-01-30T00:37:48;5.07;;;4.10;;
37151;SDS011;23046;50.112;8.952;2024-01-30T00:37:58;5.77;;;4.30;;
37151;SDS011;23046;50.112;8.952;2024-01-30T00:38:08;5.67;;;4.23;;
37151;SDS011;23046;50.112;8.952;2024-01-30T00:38:18;5.73;;;4.20;;
37151;SDS011;23046;50.112;8.952;2024-01-30T00:38:29;5.13;;;4.07;;
37151;SDS011;23046;50.112;8.952;2024-01-30T00:38:39;5.27;;;4.10;;
37151;SDS011;23046;50.112;8.952;2024-01-30T00:38:50;5.95;;;4.00;;
37151;SDS011;23046;50.112;8.952;2024-01-30T00:39:01;5.77;;;3.73;;
37151;SDS011;23046;50.112;8.952;2024-01-30T00:39:11;5.78;;;3.75;;
37151;SDS011;23046;50.112;8.952;2024-01-30T00:39:21;5.40;;;3.80;;
37151;SDS011;23046;50.112;8.952;2024-01-30T00:39:32;5.93;;;3.90;;
37151;SDS011;23046;50.112;8.952;2024-01-30T00:39:42;6.95;;;3.88;;
37151;SDS011;23046;50.112;8.952;2024-01-30T00:39:52;7.50;;;3.87;;
37151;SDS011;23046;50.112;8.952;2024-01-30T00:40:02;7.77;;;4.00;;
37151;SDS011;23046;50.112;8.952;2024-01-30T00:40:13;7.10;;;4.13;;
37151;SDS011;23046;50.112;8.952;2024-01-30T00:40:25;6.90;;;4.00;;
37151;SDS011;23046;50.112;8.952;2024-01-30T00:40:36;6.60;;;3.80;;
37151;SDS011;23046;50.112;8.952;2024-01-30T00:40:46;5.35;;;3.80;;
37151;SDS011;23046;50.112;8.952;2024-01-30T00:40:56;6.13;;;4.03;;
37151;SDS011;23046;50.112;8.952;2024-01-30T00:41:07;6.43;;;4.30;;
37151;SDS011;23046;50.112;8.952;2024-01-30T00:41:18;7.60;;;4.28;;
37151;SDS011;23046;50.112;8.952;2024-01-30T00:41:29;7.38;;;4.35;;
37151;SDS011;23046;50.112;8.952;2024-01-30T00:41:39;7.47;;;4.37;;
37151;SDS011;23046;50.112;8.952;2024-01-30T00:41:49;6.17;;;4.23;;
37151;SDS011;23046;50.112;8.952;2024-01-30T00:41:59;6.23;;;4.37;;
37151;SDS011;23046;50.112;8.952;2024-01-30T00:42:10;5.73;;;4.23;;
37151;SDS011;23046;50.112;8.952;2024-01-30T00:42:20;5.63;;;4.30;;
37151;SDS011;23046;50.112;8.952;2024-01-30T00:42:31;5.83;;;4.30;;
37151;SDS011;23046;50.112;8.952;2024-01-30T00:42:42;5.97;;;4.40;;
37151;SDS011;23046;50.112;8.952;2024-01-30T00:42:52;7.00;;;4.47;;
37151;SDS011;23046;50.112;8.952;2024-01-30T00:43:02;6.63;;;4.32;;
37151;SDS011;23046;50.112;8.952;2024-01-30T00:43:12;6.40;;;4.20;;
37151;SDS011;23046;50.112;8.952;2024-01-30T00:43:23;5.53;;;4.10;;
37151;SDS011;23046;50.112;8.952;2024-01-30T00:43:35;4.90;;;3.80;;
37151;SDS011;23046;50.112;8.952;2024-01-30T00:43:45;4.85;;;3.78;;
37151;SDS011;23046;50.112;8.952;2024-01-30T00:43:55;4.40;;;3.60;;
37151;SDS011;23046;50.112;8.952;2024-01-30T00:44:06;4.27;;;3.73;;
37151;SDS011;23046;50.112;8.952;2024-01-30T00:44:16;4.73;;;3.87;;
37151;SDS011;23046;50.112;8.952;2024-01-30T00:44:26;5.37;;;4.23;;
37151;SDS011;23046;50.112;8.952;2024-01-30T00:44:36;5.75;;;4.40;;
37151;SDS011;23046;50.112;8.952;2024-01-30T00:44:49;5.47;;;4.10;;
37151;SDS011;23046;50.112;8.952;2024-01-30T00:44:59;5.33;;;3.97;;
37151;SDS011;23046;50.112;8.952;2024-01-30T00:45:13;6.20;;;3.97;;
37151;SDS011;23046;50.112;8.952;2024-01-30T00:45:24;6.20;;;4.07;;
37151;SDS011;23046;50.112;8.952;2024-01-30T00:45:34;6.10;;;4.10;;
37151;SDS011;23046;50.112;8.952;2024-01-30T00:45:44;5.27;;;3.83;;
37151;SDS011;23046;50.112;8.952;2024-01-30T00:45:55;6.27;;;3.90;;
37151;SDS011;23046;50.112;8.952;2024-01-30T00:46:05;6.90;;;3.93;;
37151;SDS011;23046;50.112;8.952;2024-01-30T00:46:15;7.30;;;4.18;;
37151;SDS011;23046;50.112;8.952;2024-01-30T00:46:25;7.40;;;4.30;;
37151;SDS011;23046;50.112;8.952;2024-01-30T00:46:36;6.73;;;4.33;;
37151;SDS011;23046;50.112;8.952;2024-01-30T00:46:46;6.67;;;4.30;;
37151;SDS011;23046;50.112;8.952;2024-01-30T00:46:56;5.90;;;4.20;;
37151;SDS011;23046;50.112;8.952;2024-01-30T00:47:06;5.57;;;4.18;;
37151;SDS011;23046;50.112;8.952;2024-01-30T00:47:16;6.43;;;4.23;;
37151;SDS011;23046;50.112;8.952;2024-01-30T00:47:27;6.17;;;4.20;;
37151;SDS011;23046;50.112;8.952;2024-01-30T00:47:39;6.05;;;4.15;;
37151;SDS011;23046;50.112;8.952;2024-01-30T00:47:49;5.33;;;4.10;;
37151;SDS011;23046;50.112;8.952;2024-01-30T00:47:59;5.33;;;4.00;;
37151;SDS011;23046;50.112;8.952;2024-01-30T00:48:09;5.10;;;3.88;;
37151;SDS011;23046;50.112;8.952;2024-01-30T00:48:20;6.00;;;4.07;;
37151;SDS011;23046;50.112;8.952;2024-01-30T00:48:30;5.53;;;4.03;;
37151;SDS011;23046;50.112;8.952;2024-01-30T00:48:40;7.30;;;4.43;;
37151;SDS011;23046;50.112;8.952;2024-01-30T00:48:50;7.03;;;4.40;;
37151;SDS011;23046;50.112;8.952;2024-01-30T00:49:00;7.20;;;4.43;;
37151;SDS011;23046;50.112;8.952;2024-01-30T00:49:11;6.10;;;4.23;;
37151;SDS011;23046;50.112;8.952;2024-01-30T00:49:21;5.90;;;4.23;;
37151;SDS011;23046;50.112;8.952;2024-01-30T00:49:31;5.90;;;4.20;;
37151;SDS011;23046;50.112;8.952;2024-01-30T00:49:41;5.75;;;4.10;;
37151;SDS011;23046;50.112;8.952;2024-01-30T00:49:52;5.87;;;4.07;;
37151;SDS011;23046;50.112;8.952;2024-01-30T00:50:02;5.40;;;4.03;;
37151;SDS011;23046;50.112;8.952;2024-01-30T00:50:12;5.10;;;3.83;;
37151;SDS011;23046;50.112;8.952;2024-01-30T00:50:22;5.40;;;4.00;;
37151;SDS011;23046;50.112;8.952;2024-01-30T00:50:33;5.13;;;3.90;;
37151;SDS011;23046;50.112;8.952;2024-01-30T00:50:43;5.30;;;4.03;;
37151;SDS011;23046;50.112;8.952;2024-01-30T00:50:53;6.90;;;3.93;;
37151;SDS011;23046;50.112;8.952;2024-01-30T00:51:03;7.40;;;4.17;;
37151;SDS011;23046;50.112;8.952;2024-01-30T00:51:14;8.13;;;4.32;;
37151;SDS011;23046;50.112;8.952;2024-01-30T00:51:24;7.45;;;4.55;;
37151;SDS011;23046;50.112;8.952;2024-01-30T00:51:35;8.00;;;4.70;;
37151;SDS011;23046;50.112;8.952;2024-01-30T00:51:45;6.90;;;4.47;;
37151;SDS011;23046;50.112;8.952;2024-01-30T00:51:55;6.95;;;4.32;;
37151;SDS011;23046;50.112;8.952;2024-01-30T00:52:06;7.30;;;4.57;;
37151;SDS011;23046;50.112;8.952;2024-01-30T00:52:16;6.97;;;4.57;;
37151;SDS011;23046;50.112;8.952;2024-01-30T00:52:26;6.10;;;4.37;;
37151;SDS011;23046;50.112;8.952;2024-01-30T00:52:36;6.18;;;4.28;;
37151;SDS011;23046;50.112;8.952;2024-01-30T00:52:49;6.60;;;4.20;;
37151;SDS011;23046;50.112;8.952;2024-01-30T00:52:59;6.50;;;4.30;;
37151;SDS011;23046;50.112;8.952;2024-01-30T00:53:09;5.47;;;4.00;;
37151;SDS011;23046;50.112;8.952;2024-01-30T00:53:19;5.67;;;4.10;;
37151;SDS011;23046;50.112;8.952;2024-01-30T00:53:29;6.00;;;4.10;;
37151;SDS011;23046;50.112;8.952;2024-01-30T00:53:40;5.47;;;4.03;;
37151;SDS011;23046;50.112;8.952;2024-01-30T00:53:51;7.40;;;4.03;;
37151;SDS011;23046;50.112;8.952;2024-01-30T00:54:01;8.03;;;4.17;;
37151;SDS011;23046;50.112;8.952;2024-01-30T00:54:12;8.88;;;4.18;;
37151;SDS011;23046;50.112;8.952;2024-01-30T00:54:23;5.83;;;4.20;;
37151;SDS011;23046;50.112;8.952;2024-01-30T00:54:33;5.70;;;4.23;;
37151;SDS011;23046;50.112;8.952;2024-01-30T00:54:43;6.30;;;4.57;;
37151;SDS011;23046;50.112;8.952;2024-01-30T00:54:53;6.30;;;4.60;;
37151;SDS011;23046;50.112;8.952;2024-01-30T00:55:04;8.45;;;4.50;;
37151;SDS011;23046;50.112;8.952;2024-01-30T00:55:14;7.83;;;4.47;;
37151;SDS011;23046;50.112;8.952;2024-01-30T00:55:24;8.37;;;4.50;;
37151;SDS011;23046;50.112;8.952;2024-01-30T00:55:35;6.43;;;4.70;;
37151;SDS011;23046;50.112;8.952;2024-01-30T00:55:45;6.30;;;4.53;;
37151;SDS011;23046;50.112;8.952;2024-01-30T00:55:55;6.00;;;4.43;;
37151;SDS011;23046;50.112;8.952;2024-01-30T00:56:06;6.68;;;4.55;;
37151;SDS011;23046;50.112;8.952;2024-01-30T00:56:16;6.87;;;4.40;;
37151;SDS011;23046;50.112;8.952;2024-01-30T00:56:28;7.22;;;4.43;;
37151;SDS011;23046;50.112;8.952;2024-01-30T00:56:38;6.10;;;4.03;;
37151;SDS011;23046;50.112;8.952;2024-01-30T00:56:49;6.53;;;4.17;;
37151;SDS011;23046;50.112;8.952;2024-01-30T00:56:59;5.95;;;4.00;;
37151;SDS011;23046;50.112;8.952;2024-01-30T00:57:09;5.90;;;4.20;;
37151;SDS011;23046;50.112;8.952;2024-01-30T00:57:19;5.87;;;4.20;;
37151;SDS011;23046;50.112;8.952;2024-01-30T00:57:30;6.43;;;4.30;;
37151;SDS011;23046;50.112;8.952;2024-01-30T00:57:40;7.20;;;4.30;;
37151;SDS011;23046;50.112;8.952;2024-01-30T00:57:50;7.40;;;4.40;;
37151;SDS011;23046;50.112;8.952;2024-01-30T00:58:01;6.63;;;4.33;;
37151;SDS011;23046;50.112;8.952;2024-01-30T00:58:11;6.80;;;4.38;;
37151;SDS011;23046;50.112;8.952;2024-01-30T00:58:21;6.63;;;4.40;;
37151;SDS011;23046;50.112;8.952;2024-01-30T00:58:31;6.43;;;4.43;;
37151;SDS011;23046;50.112;8.952;2024-01-30T00:58:41;5.87;;;4.30;;
37151;SDS011;23046;50.112;8.952;2024-01-30T00:58:52;6.13;;;4.30;;
37151;SDS011;23046;50.112;8.952;2024-01-30T00:59:02;6.97;;;4.20;;
37151;SDS011;23046;50.112;8.952;2024-01-30T00:59:12;6.77;;;4.20;;
37151;SDS011;23046;50.112;8.952;2024-01-30T00:59:22;6.27;;;4.03;;
37151;SDS011;23046;50.112;8.952;2024-01-30T00:59:33;6.38;;;4.18;;
37151;SDS011;23046;50.112;8.952;2024-01-30T00:59:43;6.93;;;4.27;;
37151;SDS011;23046;50.112;8.952;2024-01-30T00:59:53;6.93;;;4.30;;
37151;SDS011;23046;50.112;8.952;2024-01-30T01:00:04;6.90;;;4.30;;
37151;SDS011;23046;50.112;8.952;2024-01-30T01:00:16;6.53;;;4.28;;
37151;SDS011;23046;50.112;8.952;2024-01-30T01:00:27;6.97;;;4.57;;
37151;SDS011;23046;50.112;8.952;2024-01-30T01:00:39;6.57;;;4.30;;
37151;SDS011;23046;50.112;8.952;2024-01-30T01:00:49;6.20;;;4.20;;
37151;SDS011;23046;50.112;8.952;2024-01-30T01:00:59;5.27;;;4.07;;
37151;SDS011;23046;50.112;8.952;2024-01-30T01:01:10;6.17;;;4.37;;
37151;SDS011;23046;50.112;8.952;2024-01-30T01:01:20;6.07;;;4.35;;
37151;SDS011;23046;50.112;8.952;2024-01-30T01:01:30;6.43;;;4.50;;
37151;SDS011;23046;50.112;8.952;2024-01-30T01:01:41;6.43;;;4.40;;
37151;SDS011;23046;50.112;8.952;2024-01-30T01:01:51;5.97;;;4.17;;
37151;SDS011;23046;50.112;8.952;2024-01-30T01:02:02;5.63;;;4.00;;
37151;SDS011;23046;50.112;8.952;2024-01-30T01:02:12;6.60;;;4.25;;
37151;SDS011;23046;50.112;8.952;2024-01-30T01:02:23;7.53;;;4.47;;
37151;SDS011;23046;50.112;8.952;2024-01-30T01:02:34;8.17;;;4.43;;
37151;SDS011;23046;50.112;8.952;2024-01-30T01:02:44;7.57;;;4.20;;
37151;SDS011;23046;50.112;8.952;2024-01-30T01:02:55;8.70;;;4.30;;